Time;durP1;ratioP1;P1;durP2;ratioP2;P2;SDS_P1;SDS_P2;PMS_P1;PMS_P2;Temp;Humidity;BMP_temperature;BMP_pressure;BME280_temperature;BME280_humidity;BME280_pressure;Samples;Min_cycle;Max_cycle;Signal;HPM_P1;HPM_P2
2022/01/25 00:09:18;;;;;;;37.35;21.20;;;;;;;4.11;100.00;102502.00;5048829;28;20056;-78
2022/01/25 00:25:59;;;;;;;25.23;16.10;;;;;;;4.06;100.00;102492.47;5052265;28;20509;-77
2022/01/25 00:31:09;;;;;;;26.23;17.33;;;;;;;3.98;100.00;102489.00;5068861;28;21614;-75
2022/01/25 00:33:38;;;;;;;31.17;17.55;;;;;;;4.02;100.00;102489.88;5065496;28;20060;-76
2022/01/25 00:36:08;;;;;;;24.88;17.02;;;;;;;4.04;100.00;102488.13;5027515;28;20040;-77
2022/01/25 00:38:35;;;;;;;26.17;17.10;;;;;;;4.10;100.00;102479.41;5048030;28;20135;-76
2022/01/25 00:41:03;;;;;;;28.08;17.17;;;;;;;4.04;100.00;102480.28;5045468;28;20053;-76
2022/01/25 00:43:31;;;;;;;25.77;16.88;;;;;;;3.98;100.00;102472.50;5067330;28;20060;-78
2022/01/25 00:46:02;;;;;;;26.88;16.08;;;;;;;3.92;100.00;102469.91;5025121;28;20114;-76
2022/01/25 00:48:43;;;;;;;25.52;16.67;;;;;;;3.85;100.00;102458.63;5071372;28;20127;-77
2022/01/25 00:54:28;;;;;;;25.27;17.25;;;;;;;3.88;100.00;102456.03;5064570;28;20490;-76
2022/01/25 00:56:56;;;;;;;27.55;17.45;;;;;;;3.93;100.00;102445.59;5043491;28;20064;-77
2022/01/25 00:59:26;;;;;;;27.90;17.85;;;;;;;3.94;100.00;102442.97;5046164;28;20122;-76
2022/01/25 01:01:57;;;;;;;26.83;17.10;;;;;;;3.96;100.00;102445.56;5069308;28;20127;-76
2022/01/25 01:04:26;;;;;;;25.15;16.00;;;;;;;3.91;100.00;102442.09;5051575;28;20040;-76
2022/01/25 01:06:53;;;;;;;25.33;17.02;;;;;;;3.90;100.00;102436.03;5024341;28;20099;-77
2022/01/25 01:09:22;;;;;;;23.83;15.90;;;;;;;3.92;100.00;102442.13;5076379;28;20139;-78
2022/01/25 01:12:04;;;;;;;27.58;17.63;;;;;;;3.83;100.00;102442.13;5074929;28;20074;-76
2022/01/25 01:14:51;;;;;;;26.10;17.85;;;;;;;3.77;100.00;102443.00;5048201;28;20071;-76
2022/01/25 01:31:24;;;;;;;28.13;17.95;;;;;;;3.78;100.00;102449.06;5055826;28;20135;-76
2022/01/25 01:42:15;;;;;;;24.85;16.38;;;;;;;3.88;100.00;102437.78;5049969;28;20052;-79
2022/01/25 01:47:48;;;;;;;30.13;18.20;;;;;;;3.87;100.00;102445.59;5032842;28;20040;-77
2022/01/25 01:50:27;;;;;;;26.15;17.00;;;;;;;3.91;100.00;102436.88;5037090;28;20063;-79
2022/01/25 01:52:55;;;;;;;30.13;18.08;;;;;;;3.86;100.00;102447.31;5053251;28;20052;-78
2022/01/25 01:55:23;;;;;;;29.58;18.25;;;;;;;3.82;100.00;102445.59;5050620;28;20054;-78
2022/01/25 01:57:51;;;;;;;30.40;18.27;;;;;;;3.85;100.00;102443.00;5053104;28;20127;-76
2022/01/25 02:00:21;;;;;;;29.45;18.10;;;;;;;3.84;100.00;102440.41;5048983;28;20045;-76
2022/01/25 02:02:48;;;;;;;32.30;19.02;;;;;;;3.77;100.00;102436.91;5049426;28;20048;-77
2022/01/25 02:05:16;;;;;;;32.40;20.13;;;;;;;3.73;100.00;102436.06;5059941;28;20491;-80
2022/01/25 02:07:43;;;;;;;34.58;19.08;;;;;;;3.68;100.00;102431.72;5073738;28;20528;-77
2022/01/25 02:10:10;;;;;;;34.63;19.80;;;;;;;3.65;100.00;102436.94;5065243;28;20056;-79
2022/01/25 02:12:38;;;;;;;33.65;20.83;;;;;;;3.64;100.00;102432.59;5066867;28;20565;-78
2022/01/25 02:15:08;;;;;;;34.63;19.25;;;;;;;3.65;100.00;102436.94;5048975;28;20053;-77
2022/01/25 02:17:59;;;;;;;37.97;20.77;;;;;;;3.64;100.00;102427.38;5066170;28;20071;-76
2022/01/25 02:23:21;;;;;;;31.88;19.30;;;;;;;3.75;100.00;102420.44;5056740;28;20041;-77
2022/01/25 02:25:53;;;;;;;35.53;20.55;;;;;;;3.80;100.00;102421.28;5042809;28;20058;-78
2022/01/25 02:32:33;;;;;;;38.35;20.55;;;;;;;3.83;100.00;102425.63;5059181;28;20036;-77
2022/01/25 02:35:02;;;;;;;32.90;20.20;;;;;;;3.81;100.00;102416.06;5062306;28;20063;-76
2022/01/25 02:37:30;;;;;;;40.53;22.23;;;;;;;3.77;100.00;102409.13;5070675;28;20070;-76
2022/01/25 02:39:58;;;;;;;40.15;22.45;;;;;;;3.72;100.00;102416.09;5039311;28;20103;-80
2022/01/25 02:42:26;;;;;;;36.88;21.60;;;;;;;3.71;100.00;102416.09;5076451;28;20395;-78
2022/01/25 02:44:53;;;;;;;40.00;21.40;;;;;;;3.70;100.00;102414.38;5036551;28;20090;-76
2022/01/25 02:50:07;;;;;;;;;;;;;;;3.64;100.00;102411.75;5068458;28;20048;-76
2022/01/25 02:52:34;;;;;;;43.00;22.60;;;;;;;3.62;100.00;102409.16;5031040;28;20023;-77
2022/01/25 02:55:01;;;;;;;44.47;23.38;;;;;;;3.61;100.00;102414.41;5027020;28;20059;-76
2022/01/25 02:57:28;;;;;;;43.45;22.88;;;;;;;3.65;100.00;102411.78;5043285;28;20087;-76
2022/01/25 03:00:01;;;;;;;43.95;23.95;;;;;;;3.61;100.00;102409.19;5040607;28;20056;-78
2022/01/25 03:02:28;;;;;;;48.28;25.33;;;;;;;3.58;100.00;102404.84;5064705;28;20432;-78
2022/01/25 03:04:55;;;;;;;50.90;25.42;;;;;;;3.54;100.00;102409.16;5050121;28;20411;-76
2022/01/25 03:07:23;;;;;;;46.53;25.50;;;;;;;3.51;100.00;102406.59;5033768;28;20582;-76
2022/01/25 03:09:54;;;;;;;45.78;24.63;;;;;;;3.50;100.00;102409.19;5029981;28;20151;-76
2022/01/25 03:12:32;;;;;;;43.90;24.60;;;;;;;3.58;100.00;102409.19;5035489;28;20048;-75
2022/01/25 03:15:23;;;;;;;50.03;24.88;;;;;;;3.50;100.00;102404.84;5050834;28;20043;-76
2022/01/25 03:17:59;;;;;;;49.42;24.92;;;;;;;3.41;100.00;102396.16;5061611;28;20040;-76
2022/01/25 03:20:49;;;;;;;44.60;23.48;;;;;;;3.44;100.00;102385.75;5056579;28;20082;-78
2022/01/25 03:23:21;;;;;;;50.92;24.33;;;;;;;3.49;100.00;102400.50;5045542;28;20088;-76
2022/01/25 03:25:49;;;;;;;45.42;24.10;;;;;;;3.35;100.00;102393.59;5049336;28;20052;-76
2022/01/25 03:28:18;;;;;;;47.33;23.88;;;;;;;3.21;100.00;102399.66;5061984;28;20400;-76
2022/01/25 03:30:47;;;;;;;51.33;24.83;;;;;;;3.20;100.00;102400.53;5048464;28;20466;-75
2022/01/25 03:33:15;;;;;;;45.33;25.63;;;;;;;3.21;100.00;102397.06;5053921;28;20076;-77
2022/01/25 03:35:44;;;;;;;48.83;24.83;;;;;;;3.24;100.00;102401.38;5064910;28;20115;-76
2022/01/25 03:38:11;;;;;;;50.05;24.27;;;;;;;3.27;100.00;102409.19;5041344;28;20139;-78
2022/01/25 03:40:39;;;;;;;49.38;25.17;;;;;;;3.21;100.00;102406.59;5059669;28;20140;-79
2022/01/25 03:43:08;;;;;;;43.00;23.63;;;;;;;3.20;100.00;102400.53;5034036;28;20080;-76
2022/01/25 03:45:38;;;;;;;44.47;23.63;;;;;;;3.11;100.00;102395.34;5048910;28;20044;-77
2022/01/25 03:50:44;;;;;;;50.58;23.15;;;;;;;3.02;100.00;102395.31;5063489;28;20049;-78
2022/01/25 03:53:12;;;;;;;45.65;24.00;;;;;;;3.03;100.00;102397.91;5038171;28;20048;-76
2022/01/25 03:55:40;;;;;;;41.95;23.02;;;;;;;2.99;100.00;102393.56;5033960;28;20047;-77
2022/01/25 03:58:08;;;;;;;50.38;23.60;;;;;;;3.01;100.00;102397.03;5049641;28;20040;-76
2022/01/25 04:00:36;;;;;;;49.20;24.80;;;;;;;3.09;100.00;102390.97;5042780;28;20127;-76
2022/01/25 04:03:14;;;;;;;49.55;23.75;;;;;;;2.99;100.00;102385.78;5047867;28;20207;-77
2022/01/25 04:08:09;;;;;;;44.15;23.42;;;;;;;2.91;100.00;102390.09;5069104;28;20455;-77
2022/01/25 04:10:37;;;;;;;42.53;22.50;;;;;;;2.91;100.00;102382.28;5042887;28;20407;-76
2022/01/25 04:13:05;;;;;;;42.28;22.70;;;;;;;2.92;100.00;102390.97;5061811;28;20049;-78
2022/01/25 04:15:34;;;;;;;47.88;22.88;;;;;;;2.93;100.00;102384.91;5049060;28;20045;-78
2022/01/25 04:18:19;;;;;;;42.05;20.77;;;;;;;2.94;100.00;102371.03;5066891;28;20036;-76
2022/01/25 04:21:07;;;;;;;42.85;22.08;;;;;;;2.91;100.00;102364.09;5049672;28;20105;-76
2022/01/25 04:26:20;;;;;;;46.17;21.88;;;;;;;2.92;100.00;102362.34;5069908;28;20139;-77
2022/01/25 04:28:48;;;;;;;45.95;22.17;;;;;;;2.95;100.00;102362.34;5044989;28;20080;-77
2022/01/25 04:31:18;;;;;;;41.28;21.23;;;;;;;2.94;100.00;102356.28;5058917;28;20124;-77
2022/01/25 04:34:06;;;;;;;41.78;20.88;;;;;;;3.04;100.00;102354.56;5064265;28;20143;-76
2022/01/25 04:53:21;;;;;;;41.33;19.80;;;;;;;3.02;100.00;102371.91;5058171;28;20098;-79
2022/01/25 04:59:00;;;;;;;39.30;17.40;;;;;;;2.98;100.00;102363.22;5016470;28;20153;-77
2022/01/25 05:02:48;;;;;;;36.97;18.33;;;;;;;3.01;100.00;102363.22;5035948;28;20040;-77
2022/01/25 05:05:24;;;;;;;42.85;18.52;;;;;;;2.99;100.00;102370.16;5062849;28;20040;-80
2022/01/25 05:08:14;;;;;;;58.33;18.13;;;;;;;2.99;100.00;102362.34;5047747;28;20031;-77
2022/01/25 05:10:51;;;;;;;41.47;19.98;;;;;;;3.01;100.00;102364.94;5052980;28;20123;-79
2022/01/25 05:16:07;;;;;;;37.40;19.27;;;;;;;3.05;100.00;102366.69;5049925;28;21165;-77
2022/01/25 05:18:44;;;;;;;38.45;19.30;;;;;;;3.11;100.00;102364.09;5050227;28;20051;-78
2022/01/25 05:23:58;;;;;;;30.88;17.05;;;;;;;2.98;100.00;102368.44;5077923;28;20053;-78
2022/01/25 05:26:25;;;;;;;33.13;17.63;;;;;;;3.06;100.00;102376.22;5064713;28;20128;-77
2022/01/25 05:28:58;;;;;;;38.65;19.70;;;;;;;3.05;100.00;102375.34;5044511;28;20421;-78
2022/01/25 05:31:26;;;;;;;34.22;17.52;;;;;;;3.07;100.00;102374.50;5046924;28;20149;-75
2022/01/25 05:33:53;;;;;;;39.92;19.58;;;;;;;3.12;100.00;102378.84;5064291;28;20203;-77
2022/01/25 05:36:24;;;;;;;39.10;19.25;;;;;;;3.12;100.00;102380.59;5065229;28;20033;-78
2022/01/25 05:38:55;;;;;;;43.47;20.42;;;;;;;3.13;100.00;102382.31;5035591;28;20127;-78
2022/01/25 05:41:26;;;;;;;40.88;20.73;;;;;;;3.10;100.00;102392.72;5064119;28;20567;-79
2022/01/25 05:44:14;;;;;;;43.60;19.42;;;;;;;3.05;100.00;102385.75;5062775;28;20036;-77
2022/01/25 05:51:28;;;;;;;43.60;20.25;;;;;;;3.07;100.00;102382.31;5055260;28;20046;-78
2022/01/25 05:53:55;;;;;;;39.83;20.00;;;;;;;3.11;100.00;102387.53;5041966;28;20141;-77
2022/01/25 05:56:22;;;;;;;42.10;20.70;;;;;;;3.03;100.00;102384.03;5045850;28;20052;-77
2022/01/25 05:58:50;;;;;;;42.67;20.25;;;;;;;2.95;100.00;102383.16;5057023;28;20123;-77
2022/01/25 06:01:20;;;;;;;35.50;19.67;;;;;;;3.01;100.00;102376.22;5025518;28;20057;-77
2022/01/25 06:03:48;;;;;;;43.20;20.85;;;;;;;3.03;100.00;102371.91;5030571;28;20052;-80
2022/01/25 06:06:48;;;;;;;39.05;19.75;;;;;;;3.01;100.00;102377.97;5042259;28;20040;-78
2022/01/25 06:09:54;;;;;;;;;;;;;;;2.99;100.00;102383.16;5077075;28;20052;-78
2022/01/25 06:12:21;;;;;;;36.13;19.65;;;;;;;3.00;100.00;102384.03;5063817;28;19960;-76
2022/01/25 06:14:48;;;;;;;42.40;21.50;;;;;;;2.97;100.00;102381.41;5063276;28;20140;-78
2022/01/25 06:17:15;;;;;;;38.75;19.55;;;;;;;3.00;100.00;102379.69;5064157;28;20132;-78
2022/01/25 06:19:43;;;;;;;43.67;21.52;;;;;;;2.99;100.00;102383.16;5057094;28;20079;-78
2022/01/25 06:22:11;;;;;;;40.20;19.88;;;;;;;2.96;100.00;102390.09;5045674;28;20124;-77
2022/01/25 06:24:38;;;;;;;41.47;21.25;;;;;;;3.01;100.00;102394.44;5044909;28;20071;-79
2022/01/25 06:27:06;;;;;;;40.10;20.52;;;;;;;3.06;100.00;102386.63;5066189;28;20068;-76
2022/01/25 06:29:33;;;;;;;43.25;20.35;;;;;;;3.02;100.00;102390.13;5047242;28;20066;-75
2022/01/25 06:32:00;;;;;;;38.65;20.20;;;;;;;3.08;100.00;102390.13;5052236;28;20048;-77
2022/01/25 06:34:27;;;;;;;41.67;20.33;;;;;;;3.08;100.00;102384.03;5031133;28;20079;-75
2022/01/25 06:36:55;;;;;;;40.55;21.58;;;;;;;3.09;100.00;102375.38;5029688;28;20122;-76
2022/01/25 06:39:22;;;;;;;44.05;21.80;;;;;;;3.12;100.00;102372.78;5046756;28;20049;-75
2022/01/25 06:41:49;;;;;;;39.85;20.38;;;;;;;3.08;100.00;102374.50;5033700;28;20230;-75
2022/01/25 06:44:16;;;;;;;45.13;21.50;;;;;;;3.02;100.00;102369.31;5066892;28;20135;-76
2022/01/25 06:46:46;;;;;;;42.40;21.70;;;;;;;3.00;100.00;102377.09;5025895;28;20048;-75
2022/01/25 06:49:14;;;;;;;42.40;22.30;;;;;;;2.99;100.00;102372.75;5057596;28;20366;-75
2022/01/25 06:51:41;;;;;;;48.22;21.95;;;;;;;2.95;100.00;102381.44;5042451;28;20039;-77
2022/01/25 06:54:08;;;;;;;47.80;23.15;;;;;;;2.94;100.00;102378.84;5075041;28;20046;-77
2022/01/25 06:56:36;;;;;;;48.55;23.63;;;;;;;2.94;100.00;102379.69;5061994;28;20150;-76
2022/01/25 06:59:03;;;;;;;46.75;22.50;;;;;;;2.90;100.00;102375.34;5044473;28;20048;-77
2022/01/25 07:05:43;;;;;;;41.63;20.98;;;;;;;3.05;100.00;102379.69;5070563;22;20561;-69
2022/01/25 07:08:10;;;;;;;41.40;20.70;;;;;;;3.00;100.00;102392.69;5059765;28;20356;-70
2022/01/25 07:10:38;;;;;;;46.72;21.63;;;;;;;3.04;100.00;102389.25;5067266;28;20106;-70
2022/01/25 07:13:05;;;;;;;42.88;21.33;;;;;;;2.98;100.00;102386.66;5049889;28;20056;-69
2022/01/25 07:15:32;;;;;;;46.65;22.58;;;;;;;2.98;100.00;102384.03;5048576;28;20045;-70
2022/01/25 07:18:00;;;;;;;43.22;20.92;;;;;;;3.00;100.00;102391.84;5049445;28;20135;-69
2022/01/25 07:20:27;;;;;;;45.47;19.88;;;;;;;2.98;100.00;102386.66;5050640;28;20048;-70
2022/01/25 07:22:54;;;;;;;40.08;20.33;;;;;;;3.03;100.00;102386.66;5070335;28;20130;-70
2022/01/25 07:25:21;;;;;;;48.05;22.08;;;;;;;3.01;100.00;102384.03;5068380;28;20078;-70
2022/01/25 07:27:49;;;;;;;47.90;22.00;;;;;;;2.97;100.00;102387.53;5049734;28;20042;-70
2022/01/25 07:30:16;;;;;;;50.75;23.38;;;;;;;3.00;100.00;102384.91;5069280;28;20128;-70
2022/01/25 07:32:43;;;;;;;50.95;25.20;;;;;;;3.00;100.00;102377.09;5044252;28;20060;-70
2022/01/25 07:35:14;;;;;;;51.42;25.23;;;;;;;3.08;100.00;102384.03;5047584;28;20136;-69
2022/01/25 07:37:45;;;;;;;52.00;23.23;;;;;;;3.16;100.00;102390.13;5045384;28;20080;-70
2022/01/25 07:40:15;;;;;;;51.58;24.73;;;;;;;3.15;100.00;102381.47;5044353;28;20557;-70
2022/01/25 07:42:50;;;;;;;46.75;23.02;;;;;;;3.18;100.00;102390.97;5048955;28;20091;-70
2022/01/25 07:45:25;;;;;;;49.20;23.80;;;;;;;3.19;100.00;102385.75;5045314;28;20059;-69
2022/01/25 07:47:57;;;;;;;45.47;22.10;;;;;;;3.24;100.00;102390.97;5047050;28;20063;-69
2022/01/25 07:50:27;;;;;;;49.33;23.45;;;;;;;3.31;100.00;102382.28;5047815;28;20045;-69
2022/01/25 07:52:54;;;;;;;44.40;21.58;;;;;;;3.31;100.00;102384.91;5078593;28;20044;-70
2022/01/25 07:55:21;;;;;;;52.08;24.02;;;;;;;3.30;100.00;102391.84;5070299;28;20036;-69
2022/01/25 07:57:48;;;;;;;61.53;27.30;;;;;;;3.27;100.00;102385.78;5047114;28;20057;-69
2022/01/25 08:00:16;;;;;;;53.45;25.98;;;;;;;3.30;100.00;102388.38;5043053;28;20072;-70
2022/01/25 08:02:46;;;;;;;52.30;24.05;;;;;;;3.34;100.00;102392.72;5045871;28;20076;-69
2022/01/25 08:05:26;;;;;;;57.00;23.50;;;;;;;3.30;100.00;102391.84;5061495;28;20530;-69
2022/01/25 08:08:22;;;;;;;49.67;23.55;;;;;;;3.39;100.00;102388.38;4995117;28;20536;-70
2022/01/25 08:10:50;;;;;;;49.40;25.45;;;;;;;3.45;100.00;102395.31;5030757;28;20052;-69
2022/01/25 08:13:22;;;;;;;61.40;26.17;;;;;;;3.35;100.00;102394.44;5046199;28;20080;-70
2022/01/25 08:15:57;;;;;;;53.15;25.70;;;;;;;3.34;100.00;102387.50;5058923;28;20048;-68
2022/01/25 08:18:35;;;;;;;58.63;25.98;;;;;;;3.34;100.00;102387.50;5055873;28;20056;-69
2022/01/25 08:21:18;;;;;;;58.45;26.38;;;;;;;3.37;100.00;102386.63;5050646;28;20131;-70
2022/01/25 08:23:59;;;;;;;51.75;25.83;;;;;;;3.48;100.00;102385.75;5065067;28;20525;-70
2022/01/25 08:26:33;;;;;;;52.80;25.52;;;;;;;3.59;100.00;102384.88;5030647;28;20056;-70
2022/01/25 08:29:26;;;;;;;52.65;24.52;;;;;;;3.57;100.00;102379.66;5049684;28;20419;-70
2022/01/25 08:32:07;;;;;;;57.95;26.88;;;;;;;3.80;100.00;102374.41;5062835;28;20131;-70
2022/01/25 08:35:07;;;;;;;52.03;24.52;;;;;;;4.13;100.00;102373.41;5032511;28;20044;-70
2022/01/25 08:37:48;;;;;;;47.20;23.40;;;;;;;4.22;100.00;102370.75;5043092;28;20079;-70
2022/01/25 08:40:18;;;;;;;45.35;25.20;;;;;;;4.11;100.00;102374.31;5061567;28;20104;-69
2022/01/25 08:42:49;;;;;;;48.17;23.50;;;;;;;4.00;100.00;102372.59;5063376;28;20140;-70
2022/01/25 08:45:18;;;;;;;44.60;23.38;;;;;;;4.05;100.00;102377.78;5064250;28;20040;-69
2022/01/25 08:48:12;;;;;;;46.53;23.67;;;;;;;4.14;100.00;102376.88;5052253;28;20106;-69
2022/01/25 08:50:58;;;;;;;46.78;24.50;;;;;;;3.93;100.00;102386.53;5058088;28;20151;-70
2022/01/25 08:53:39;;;;;;;48.22;22.35;;;;;;;3.75;100.00;102381.38;5003854;28;20057;-70
2022/01/25 08:56:13;;;;;;;49.35;23.00;;;;;;;3.74;100.00;102384.84;5029346;28;20037;-69
2022/01/25 09:03:08;;;;;;;;;;;;;;;3.80;100.00;102377.88;4989701;28;20689;-70
2022/01/25 09:05:40;;;;;;;54.25;24.80;;;;;;;3.81;100.00;102378.72;4978713;28;20019;-70
2022/01/25 09:08:07;;;;;;;48.63;24.23;;;;;;;3.78;100.00;102374.41;4989159;28;20133;-70
2022/01/25 09:10:34;;;;;;;47.47;23.02;;;;;;;3.90;100.00;102376.09;4950358;28;20074;-71
2022/01/25 09:13:03;;;;;;;54.75;24.83;;;;;;;3.94;100.00;102372.63;4994319;28;20141;-70
2022/01/25 09:15:30;;;;;;;49.10;24.30;;;;;;;3.87;100.00;102381.31;4981588;28;20516;-70
2022/01/25 09:17:57;;;;;;;47.50;22.08;;;;;;;3.84;100.00;102383.94;5054013;28;20055;-70
2022/01/25 09:20:25;;;;;;;46.60;23.38;;;;;;;3.87;100.00;102385.66;5025954;28;20041;-70
2022/01/25 09:22:52;;;;;;;47.70;24.38;;;;;;;3.88;100.00;102380.47;5042835;28;20040;-70
2022/01/25 09:25:30;;;;;;;47.58;24.23;;;;;;;3.79;100.00;102380.50;5063626;28;20060;-70
2022/01/25 09:27:58;;;;;;;46.88;24.95;;;;;;;3.80;100.00;102374.41;5062613;28;20076;-70
2022/01/25 09:30:25;;;;;;;52.80;25.52;;;;;;;3.81;100.00;102373.53;5059975;28;20091;-71
2022/01/25 09:32:52;;;;;;;50.05;23.92;;;;;;;3.92;100.00;102376.97;5073703;28;20124;-70
2022/01/25 09:35:20;;;;;;;48.35;24.27;;;;;;;3.92;100.00;102381.31;5067913;28;21289;-70
2022/01/25 09:37:47;;;;;;;47.97;24.27;;;;;;;3.85;100.00;102382.22;5040929;28;20067;-69
2022/01/25 09:40:15;;;;;;;46.38;22.65;;;;;;;3.83;100.00;102382.22;5070219;28;20084;-70
2022/01/25 09:42:42;;;;;;;47.55;22.88;;;;;;;3.72;100.00;102381.38;5052656;28;20503;-69
2022/01/25 09:45:15;;;;;;;43.95;21.80;;;;;;;3.66;100.00;102377.03;5048452;28;20041;-70
2022/01/25 09:47:43;;;;;;;46.13;22.35;;;;;;;3.59;100.00;102372.72;5064571;28;20620;-70
2022/01/25 09:50:10;;;;;;;53.72;25.23;;;;;;;3.65;100.00;102372.72;5050905;28;20045;-70
2022/01/25 09:52:39;;;;;;;52.80;25.40;;;;;;;3.71;100.00;102374.44;5067041;28;20056;-69
2022/01/25 09:55:12;;;;;;;50.92;23.08;;;;;;;3.71;100.00;102382.25;5044996;28;20045;-70
2022/01/25 09:57:39;;;;;;;37.80;20.42;;;;;;;3.69;100.00;102377.06;5064193;28;21231;-70
2022/01/25 10:00:09;;;;;;;40.42;19.85;;;;;;;3.61;100.00;102370.97;5060761;28;20049;-70
2022/01/25 10:03:02;;;;;;;49.70;21.40;;;;;;;3.61;100.00;102375.31;5061297;28;20144;-70
2022/01/25 10:05:37;;;;;;;41.60;21.73;;;;;;;3.67;100.00;102370.09;5047128;28;20052;-70
2022/01/25 10:08:08;;;;;;;49.05;21.38;;;;;;;3.69;100.00;102364.03;5065401;28;20134;-70
2022/01/25 10:10:47;;;;;;;54.22;23.45;;;;;;;3.85;100.00;102369.19;5058803;28;20068;-69
2022/01/25 10:13:18;;;;;;;53.65;23.10;;;;;;;4.00;100.00;102359.56;5066426;28;20121;-70
2022/01/25 10:15:45;;;;;;;49.72;23.73;;;;;;;3.94;100.00;102358.72;5084898;28;20054;-70
2022/01/25 10:18:20;;;;;;;45.67;21.60;;;;;;;4.07;100.00;102360.41;5051890;28;20497;-70
2022/01/25 10:20:49;;;;;;;42.25;21.30;;;;;;;4.06;100.00;102372.56;5063231;28;20074;-70
2022/01/25 10:23:19;;;;;;;42.67;19.80;;;;;;;3.83;100.00;102357.88;5046210;28;20575;-71
2022/01/25 10:25:48;;;;;;;44.30;21.10;;;;;;;3.86;100.00;102361.34;5031621;28;20055;-71
2022/01/25 10:28:21;;;;;;;46.35;20.20;;;;;;;3.78;100.00;102358.78;5050574;28;20112;-70
2022/01/25 10:30:53;;;;;;;44.50;20.48;;;;;;;3.84;100.00;102360.50;5061584;28;21091;-71
2022/01/25 10:33:33;;;;;;;41.88;18.55;;;;;;;3.93;100.00;102354.38;5064165;28;20079;-70
2022/01/25 10:36:10;;;;;;;42.35;19.95;;;;;;;3.70;100.00;102354.47;5077238;28;20139;-71
2022/01/25 10:38:40;;;;;;;37.67;18.08;;;;;;;3.75;100.00;102348.38;5048876;28;20086;-70
2022/01/25 10:41:10;;;;;;;46.30;19.60;;;;;;;3.85;100.00;102349.19;5065791;28;20033;-71
2022/01/25 10:43:40;;;;;;;39.28;19.30;;;;;;;3.89;100.00;102344.84;5048949;28;20067;-71
2022/01/25 10:46:26;;;;;;;40.75;18.48;;;;;;;3.90;100.00;102342.22;5058476;28;20068;-70
2022/01/25 10:49:08;;;;;;;42.47;19.20;;;;;;;3.90;100.00;102341.38;5048053;28;20167;-70
2022/01/25 10:51:37;;;;;;;35.90;17.60;;;;;;;3.91;100.00;102350.91;5049523;28;20051;-71
2022/01/25 10:54:10;;;;;;;37.22;16.45;;;;;;;3.97;100.00;102346.56;5065153;28;20118;-70
2022/01/25 10:56:42;;;;;;;37.83;17.75;;;;;;;4.12;100.00;102355.19;5064998;28;20072;-69
2022/01/25 10:59:13;;;;;;;40.88;16.60;;;;;;;4.01;100.00;102345.69;5040524;28;20083;-70
2022/01/25 11:01:50;;;;;;;29.38;15.13;;;;;;;3.91;100.00;102343.94;5060699;28;20044;-71
2022/01/25 11:04:21;;;;;;;30.45;15.38;;;;;;;3.98;100.00;102350.03;5053220;28;20052;-70
2022/01/25 11:07:03;;;;;;;31.88;15.15;;;;;;;4.11;100.00;102335.22;5050397;28;20480;-70
2022/01/25 11:09:37;;;;;;;32.38;15.80;;;;;;;4.16;100.00;102344.72;5049043;28;20052;-70
2022/01/25 11:12:07;;;;;;;37.13;17.23;;;;;;;4.26;100.00;102340.34;5038950;28;20055;-70
2022/01/25 11:14:50;;;;;;;33.60;16.48;;;;;;;4.27;100.00;102332.50;5029448;28;20064;-70
2022/01/25 11:17:22;;;;;;;34.85;15.55;;;;;;;4.24;100.00;102329.06;5061047;28;20045;-70
2022/01/25 11:19:50;;;;;;;29.38;14.45;;;;;;;4.23;100.00;102336.03;5061087;28;20068;-70
2022/01/25 11:22:19;;;;;;;29.92;14.95;;;;;;;4.23;100.00;102324.69;5050522;28;20139;-70
2022/01/25 11:25:06;;;;;;;29.85;15.13;;;;;;;4.20;100.00;102319.53;5065544;28;20052;-69
2022/01/25 11:27:33;;;;;;;;;;;;;;;4.18;100.00;102324.72;5059018;28;20497;-69
2022/01/25 11:30:07;;;;;;;29.08;15.05;;;;;;;4.23;100.00;102320.38;5046432;28;19927;-69
2022/01/25 11:32:39;;;;;;;28.02;14.02;;;;;;;4.27;100.00;102324.66;5063288;28;20065;-69
2022/01/25 11:35:10;;;;;;;29.65;14.45;;;;;;;4.19;100.00;102325.63;5044573;28;20067;-69
2022/01/25 11:37:46;;;;;;;26.13;12.98;;;;;;;4.18;100.00;102324.72;5064389;28;20186;-69
2022/01/25 11:40:30;;;;;;;29.60;13.80;;;;;;;4.20;100.00;102329.94;5060170;28;20118;-69
2022/01/25 11:43:03;;;;;;;31.77;13.90;;;;;;;4.18;100.00;102331.69;5066623;28;20102;-69
2022/01/25 11:45:33;;;;;;;29.73;14.60;;;;;;;4.20;100.00;102324.75;5061195;28;20503;-68
2022/01/25 11:48:01;;;;;;;29.90;13.65;;;;;;;4.16;100.00;102323.88;5034278;28;20036;-68
2022/01/25 11:50:33;;;;;;;32.15;14.88;;;;;;;4.17;100.00;102329.94;5061135;28;20052;-68
2022/01/25 11:53:06;;;;;;;34.92;16.00;;;;;;;4.21;100.00;102331.69;5039432;28;20122;-73
2022/01/25 11:56:00;;;;;;;35.80;15.60;;;;;;;4.34;100.00;102322.06;5042252;28;20131;-69
2022/01/25 11:58:30;;;;;;;35.03;15.55;;;;;;;4.42;100.00;102322.88;5063610;28;20507;-70
2022/01/25 12:01:05;;;;;;;33.03;15.50;;;;;;;4.55;100.00;102316.72;5055676;28;20057;-70
2022/01/25 12:03:47;;;;;;;29.65;14.65;;;;;;;4.54;100.00;102317.56;5065031;28;20128;-69
2022/01/25 12:06:20;;;;;;;36.80;16.35;;;;;;;4.50;100.00;102323.66;5045791;28;20044;-70
2022/01/25 12:09:09;;;;;;;33.88;15.65;;;;;;;4.57;100.00;102313.19;5043383;28;20075;-70
2022/01/25 12:12:07;;;;;;;32.03;15.90;;;;;;;4.53;100.00;102305.41;5060151;28;20459;-70
2022/01/25 12:14:44;;;;;;;39.97;17.10;;;;;;;4.48;100.00;102305.44;5044508;28;20067;-72
2022/01/25 12:17:14;;;;;;;32.88;16.02;;;;;;;4.47;100.00;102301.09;5068146;28;20060;-70
2022/01/25 12:19:53;;;;;;;32.83;15.73;;;;;;;4.45;100.00;102302.84;5049224;28;20129;-72
2022/01/25 12:22:30;;;;;;;33.88;16.23;;;;;;;4.39;100.00;102302.03;5062804;28;20194;-71
2022/01/25 12:25:17;;;;;;;36.15;15.82;;;;;;;4.41;100.00;102308.06;5060981;28;20069;-72
2022/01/25 12:27:53;;;;;;;30.10;14.88;;;;;;;4.34;100.00;102289.03;5041393;28;20042;-71
2022/01/25 12:30:26;;;;;;;32.30;14.88;;;;;;;4.49;100.00;102299.34;5065053;28;20529;-71
2022/01/25 12:32:59;;;;;;;29.58;15.25;;;;;;;4.49;100.00;102286.28;5067157;28;20063;-71
2022/01/25 12:35:56;;;;;;;36.72;17.40;;;;;;;4.49;100.00;102288.03;5041598;28;20179;-72
2022/01/25 12:38:25;;;;;;;33.10;15.38;;;;;;;4.48;100.00;102289.78;5067282;28;20151;-71
2022/01/25 12:41:05;;;;;;;32.72;16.13;;;;;;;4.50;100.00;102274.13;5062786;28;20621;-71
2022/01/25 12:43:45;;;;;;;34.88;14.57;;;;;;;4.56;100.00;102276.69;5046591;28;20075;-72
2022/01/25 12:46:30;;;;;;;39.50;17.67;;;;;;;4.48;100.00;102279.34;5044259;28;20055;-73
2022/01/25 12:49:01;;;;;;;37.58;16.48;;;;;;;4.55;100.00;102273.22;5052759;28;20104;-71
2022/01/25 12:51:31;;;;;;;35.70;15.30;;;;;;;4.60;100.00;102273.19;5064328;28;20048;-72
2022/01/25 12:54:09;;;;;;;31.77;15.30;;;;;;;4.59;100.00;102281.88;5039508;28;20579;-72
2022/01/25 12:56:46;;;;;;;33.92;16.50;;;;;;;4.63;100.00;102269.69;5033691;28;20044;-73
2022/01/25 12:59:19;;;;;;;32.00;15.95;;;;;;;4.63;100.00;102270.53;5043575;28;20047;-72
2022/01/25 13:01:47;;;;;;;31.65;15.30;;;;;;;4.64;100.00;102268.78;5043253;28;20135;-73
2022/01/25 13:04:14;;;;;;;33.05;16.52;;;;;;;4.53;100.00;102274.97;5032424;28;20052;-73
2022/01/25 13:06:46;;;;;;;29.08;13.30;;;;;;;4.51;100.00;102281.09;5035622;28;20052;-72
2022/01/25 13:09:26;;;;;;;31.35;14.93;;;;;;;4.45;100.00;102266.31;5061458;28;20059;-72
2022/01/25 13:15:15;;;;;;;32.67;16.85;;;;;;;4.34;100.00;102262.94;5067053;28;20510;-73
2022/01/25 13:17:23;;;;;;;35.40;16.58;;;;;;;4.31;100.00;102260.34;5057036;28;20044;-73
2022/01/25 13:19:56;;;;;;;36.90;17.65;;;;;;;4.25;100.00;102260.41;5043009;28;20132;-73
2022/01/25 13:22:28;;;;;;;40.78;17.95;;;;;;;4.21;100.00;102259.53;5060555;28;20396;-74
2022/01/25 13:27:46;;;;;;;36.58;17.58;;;;;;;4.29;100.00;102246.47;5059693;28;20044;-72
2022/01/25 13:33:01;;;;;;;39.38;17.27;;;;;;;4.31;100.00;102242.09;5058516;28;20458;-74